Time;durP1;ratioP1;P1;durP2;ratioP2;P2;SDS_P1;SDS_P2;PMS_P1;PMS_P2;Temp;Humidity;BMP_temperature;BMP_pressure;BME280_temperature;BME280_humidity;BME280_pressure;Samples;Min_cycle;Max_cycle;Signal;HPM_P1;HPM_P2
2023/06/03 00:00:04;;;;;;;0.20;0.20;;;13.90;99.90;;;;;;5008245;28;20061;-65
2023/06/03 00:02:30;;;;;;;0.10;0.10;;;13.80;99.90;;;;;;4994574;28;20585;-66
2023/06/03 00:04:56;;;;;;;0.00;0.00;;;13.80;99.90;;;;;;5010048;28;20113;-66
2023/06/03 00:07:21;;;;;;;0.10;0.10;;;13.80;99.90;;;;;;5012063;28;20514;-66
2023/06/03 00:09:47;;;;;;;0.38;0.38;;;13.80;99.90;;;;;;5007209;28;20050;-66
2023/06/03 00:12:13;;;;;;;0.03;0.03;;;13.70;99.90;;;;;;5001006;28;20034;-66
2023/06/03 00:14:38;;;;;;;0.10;0.10;;;13.60;99.90;;;;;;5005515;28;20459;-66
2023/06/03 00:17:04;;;;;;;0.20;0.20;;;13.70;99.90;;;;;;4997238;28;20096;-66
2023/06/03 00:19:30;;;;;;;0.10;0.10;;;13.60;99.90;;;;;;5011365;28;20462;-66
2023/06/03 00:21:56;;;;;;;0.05;0.05;;;13.60;99.90;;;;;;4997063;28;20125;-66
2023/06/03 00:24:23;;;;;;;0.35;0.20;;;13.60;99.90;;;;;;5004953;28;20058;-66
2023/06/03 00:26:50;;;;;;;0.10;0.10;;;13.50;99.90;;;;;;5003661;28;20041;-65
2023/06/03 00:29:15;;;;;;;0.10;0.10;;;13.50;99.90;;;;;;4993249;28;20054;-66
2023/06/03 00:31:41;;;;;;;0.00;0.00;;;13.40;99.90;;;;;;5010420;28;20061;-65
2023/06/03 00:34:06;;;;;;;1.55;1.45;;;13.40;99.90;;;;;;5007761;28;20772;-66
2023/06/03 00:36:32;;;;;;;0.13;0.13;;;13.40;99.90;;;;;;5004178;28;20046;-66
2023/06/03 00:38:58;;;;;;;0.22;0.22;;;13.40;99.90;;;;;;5007955;28;20128;-65
2023/06/03 00:41:23;;;;;;;0.10;0.10;;;13.30;99.90;;;;;;5011789;28;20065;-66
2023/06/03 00:43:49;;;;;;;0.00;0.00;;;13.30;99.90;;;;;;5015640;28;20038;-66
2023/06/03 00:46:18;;;;;;;0.15;0.15;;;13.30;99.90;;;;;;5014448;28;20046;-66
2023/06/03 00:48:43;;;;;;;0.00;0.00;;;13.30;99.90;;;;;;5001662;28;20517;-66
2023/06/03 00:51:09;;;;;;;2.83;0.75;;;13.20;99.90;;;;;;5010452;28;20046;-66
2023/06/03 00:53:35;;;;;;;0.00;0.00;;;13.20;99.90;;;;;;5005040;28;20050;-66
2023/06/03 00:56:00;;;;;;;0.25;0.25;;;13.20;99.90;;;;;;5006630;28;20034;-66
2023/06/03 00:58:27;;;;;;;0.10;0.10;;;13.20;99.90;;;;;;5000921;28;20489;-66
2023/06/03 01:00:52;;;;;;;0.10;0.10;;;13.30;99.90;;;;;;5013152;28;20048;-66
2023/06/03 01:03:19;;;;;;;0.00;0.00;;;13.20;99.90;;;;;;5015142;28;20385;-66
2023/06/03 01:05:50;;;;;;;0.10;0.10;;;13.20;99.90;;;;;;5003697;28;20053;-66
2023/06/03 01:08:51;;;;;;;0.00;0.00;;;13.10;99.90;;;;;;5010136;28;20041;-66
2023/06/03 01:11:33;;;;;;;0.00;0.00;;;13.10;99.90;;;;;;5007014;28;20081;-66
2023/06/03 01:14:25;;;;;;;0.10;0.10;;;13.10;99.90;;;;;;5009888;28;20049;-66
2023/06/03 01:16:52;;;;;;;0.15;0.15;;;13.10;99.90;;;;;;5009043;28;20502;-66
2023/06/03 01:19:32;;;;;;;0.00;0.00;;;13.10;99.90;;;;;;5014571;28;20259;-65
2023/06/03 01:22:02;;;;;;;0.15;0.15;;;13.10;99.90;;;;;;5002005;28;20046;-66
2023/06/03 01:24:30;;;;;;;0.20;0.20;;;13.00;99.90;;;;;;5009848;28;20046;-66
2023/06/03 01:26:56;;;;;;;0.00;0.00;;;13.10;99.90;;;;;;5014777;28;20057;-66
2023/06/03 01:29:22;;;;;;;0.05;0.05;;;13.00;99.90;;;;;;4999879;28;20065;-66
2023/06/03 01:31:48;;;;;;;0.00;0.00;;;12.90;99.90;;;;;;5008949;28;20038;-66
2023/06/03 01:34:14;;;;;;;0.00;0.00;;;12.90;99.90;;;;;;5012998;28;20478;-66
2023/06/03 01:36:40;;;;;;;0.10;0.10;;;12.90;99.90;;;;;;5013889;28;20452;-65
2023/06/03 01:39:06;;;;;;;0.08;0.08;;;12.90;99.90;;;;;;4999751;28;20129;-66
2023/06/03 01:41:33;;;;;;;0.00;0.00;;;12.80;99.90;;;;;;5012398;28;20046;-65
2023/06/03 01:43:59;;;;;;;0.10;0.10;;;12.70;99.90;;;;;;5013821;28;20045;-66
2023/06/03 01:46:24;;;;;;;0.00;0.00;;;12.80;99.90;;;;;;5011672;28;20045;-66
2023/06/03 01:48:50;;;;;;;1.95;1.85;;;12.80;99.90;;;;;;4995106;28;20038;-66
2023/06/03 01:51:16;;;;;;;0.00;0.00;;;12.70;99.90;;;;;;5008461;28;20481;-65
2023/06/03 01:53:41;;;;;;;0.10;0.10;;;12.70;99.90;;;;;;5002124;28;20157;-66
2023/06/03 01:56:07;;;;;;;0.08;0.08;;;12.70;99.90;;;;;;5010030;28;20054;-66
2023/06/03 01:58:32;;;;;;;0.00;0.00;;;12.70;99.90;;;;;;5013498;28;20038;-65
2023/06/03 02:00:58;;;;;;;0.60;0.55;;;12.70;99.90;;;;;;5004791;28;20053;-65
2023/06/03 02:03:23;;;;;;;0.10;0.10;;;12.70;99.90;;;;;;5001496;28;20470;-66
2023/06/03 02:05:49;;;;;;;0.25;0.25;;;12.70;99.90;;;;;;5018153;28;20046;-65
2023/06/03 02:08:15;;;;;;;0.00;0.00;;;12.70;99.90;;;;;;5004441;28;20052;-66
2023/06/03 02:10:41;;;;;;;0.08;0.08;;;12.70;99.90;;;;;;5001416;28;20041;-66
2023/06/03 02:13:06;;;;;;;0.10;0.10;;;12.70;99.90;;;;;;5011884;28;20092;-66
2023/06/03 02:15:32;;;;;;;0.00;0.00;;;12.80;99.90;;;;;;5002955;28;20065;-66
2023/06/03 02:17:59;;;;;;;0.10;0.10;;;12.80;99.90;;;;;;5005013;28;20119;-66
2023/06/03 02:20:24;;;;;;;0.10;0.10;;;12.80;99.90;;;;;;5012873;28;20053;-65
2023/06/03 02:22:53;;;;;;;0.10;0.10;;;12.70;99.90;;;;;;5013698;28;20038;-66
2023/06/03 02:25:20;;;;;;;0.00;0.00;;;12.70;99.90;;;;;;5002630;28;20451;-66
2023/06/03 02:27:45;;;;;;;0.10;0.10;;;12.60;99.90;;;;;;5010120;28;20044;-66
2023/06/03 02:30:11;;;;;;;0.00;0.00;;;12.60;99.90;;;;;;5013713;28;20053;-66
2023/06/03 02:32:37;;;;;;;0.10;0.10;;;12.60;99.90;;;;;;5001826;28;20535;-66
2023/06/03 02:35:02;;;;;;;0.00;0.00;;;12.60;99.90;;;;;;5000530;28;20045;-66
2023/06/03 02:37:30;;;;;;;0.65;0.52;;;12.60;99.90;;;;;;5001889;28;20042;-65
2023/06/03 02:39:56;;;;;;;0.10;0.10;;;12.60;99.90;;;;;;5012402;28;20050;-66
2023/06/03 02:42:21;;;;;;;0.63;0.63;;;12.60;99.90;;;;;;5013201;28;20054;-66
2023/06/03 02:44:47;;;;;;;0.05;0.05;;;12.50;99.90;;;;;;4999075;28;20119;-66
2023/06/03 02:47:13;;;;;;;0.00;0.00;;;12.60;99.90;;;;;;5008431;28;20046;-65
2023/06/03 02:49:38;;;;;;;0.00;0.00;;;12.50;99.90;;;;;;5001381;28;20495;-66
2023/06/03 02:52:04;;;;;;;0.03;0.03;;;12.50;99.90;;;;;;5011810;28;20069;-65
2023/06/03 02:54:30;;;;;;;0.00;0.00;;;12.50;99.90;;;;;;5012205;28;20049;-66
2023/06/03 02:56:55;;;;;;;0.00;0.00;;;12.50;99.90;;;;;;5012485;28;20395;-66
2023/06/03 02:59:21;;;;;;;0.10;0.10;;;12.40;99.90;;;;;;5004825;28;20046;-66
2023/06/03 03:01:46;;;;;;;0.00;0.00;;;12.40;99.90;;;;;;5009703;28;20497;-65
2023/06/03 03:04:12;;;;;;;0.30;0.30;;;12.40;99.90;;;;;;5002030;28;20042;-66
2023/06/03 03:06:40;;;;;;;0.00;0.00;;;12.40;99.90;;;;;;5010864;28;20049;-66
2023/06/03 03:09:06;;;;;;;2.63;1.70;;;12.40;99.90;;;;;;5000291;28;20077;-66
2023/06/03 03:11:31;;;;;;;0.00;0.00;;;12.40;99.90;;;;;;5012340;28;20081;-66
2023/06/03 03:13:58;;;;;;;0.00;0.00;;;12.40;99.90;;;;;;4999402;28;20042;-66
2023/06/03 03:16:24;;;;;;;0.00;0.00;;;12.40;99.90;;;;;;5008609;28;20038;-66
2023/06/03 03:18:49;;;;;;;0.10;0.10;;;12.50;99.90;;;;;;5001327;28;20450;-66
2023/06/03 03:21:15;;;;;;;0.10;0.10;;;12.50;99.90;;;;;;5009604;28;20045;-66
2023/06/03 03:23:41;;;;;;;0.05;0.05;;;12.50;99.90;;;;;;5011612;28;20069;-66
2023/06/03 03:26:08;;;;;;;0.00;0.00;;;12.60;99.90;;;;;;5007289;28;20046;-66
2023/06/03 03:28:35;;;;;;;0.00;0.00;;;12.60;99.90;;;;;;5003462;28;20092;-66
2023/06/03 03:31:01;;;;;;;0.00;0.00;;;12.70;99.90;;;;;;5012504;28;20045;-66
2023/06/03 03:33:27;;;;;;;0.00;0.00;;;12.70;99.90;;;;;;5012940;28;20140;-66
2023/06/03 03:35:52;;;;;;;0.00;0.00;;;12.70;99.90;;;;;;5005174;28;20457;-66
2023/06/03 03:38:18;;;;;;;0.10;0.10;;;12.70;99.90;;;;;;5008925;28;20045;-66
2023/06/03 03:40:44;;;;;;;0.10;0.10;;;12.80;99.90;;;;;;5012372;28;20042;-66
2023/06/03 03:43:16;;;;;;;0.00;0.00;;;12.80;99.90;;;;;;4997068;28;20053;-66
2023/06/03 03:45:42;;;;;;;0.00;0.00;;;12.70;99.90;;;;;;5011972;28;20049;-66
2023/06/03 03:48:12;;;;;;;0.30;0.30;;;12.70;99.90;;;;;;5008094;28;20046;-66
2023/06/03 03:50:49;;;;;;;0.00;0.00;;;12.80;99.90;;;;;;4998664;28;20132;-66
2023/06/03 03:53:21;;;;;;;0.00;0.00;;;12.90;99.90;;;;;;5012447;28;20056;-66
2023/06/03 03:55:54;;;;;;;0.03;0.03;;;12.90;99.90;;;;;;5000837;28;20109;-66
2023/06/03 03:58:26;;;;;;;0.00;0.00;;;12.90;99.90;;;;;;5020573;28;20524;-66
2023/06/03 04:01:00;;;;;;;0.00;0.00;;;12.90;99.90;;;;;;5001124;28;20161;-66
2023/06/03 04:03:27;;;;;;;0.20;0.20;;;12.90;99.90;;;;;;5012456;28;20478;-66
2023/06/03 04:05:54;;;;;;;0.10;0.10;;;12.90;99.90;;;;;;5011658;28;20049;-66
2023/06/03 04:08:58;;;;;;;0.28;0.28;;;12.80;99.90;;;;;;5004918;28;20043;-66
2023/06/03 04:11:27;;;;;;;0.00;0.00;;;12.90;99.90;;;;;;5012254;28;20048;-66
2023/06/03 04:13:54;;;;;;;0.00;0.00;;;12.90;99.90;;;;;;5029755;28;20044;-66
2023/06/03 04:16:55;;;;;;;0.10;0.10;;;12.80;99.90;;;;;;5009066;28;20417;-66
2023/06/03 04:19:33;;;;;;;0.00;0.00;;;12.80;99.90;;;;;;5011627;28;20050;-66
2023/06/03 04:22:05;;;;;;;0.00;0.00;;;12.80;99.90;;;;;;5007496;28;20038;-66
2023/06/03 04:24:33;;;;;;;0.10;0.10;;;12.80;99.90;;;;;;5001376;28;20033;-66
2023/06/03 04:26:59;;;;;;;0.10;0.10;;;12.80;99.90;;;;;;5011166;28;20057;-66
2023/06/03 04:29:24;;;;;;;0.00;0.00;;;12.70;99.90;;;;;;5007769;28;20049;-66
2023/06/03 04:31:50;;;;;;;0.00;0.00;;;12.70;99.90;;;;;;4992197;28;20043;-66
2023/06/03 04:34:16;;;;;;;0.00;0.00;;;12.70;99.90;;;;;;5007917;28;20049;-66
2023/06/03 04:36:42;;;;;;;0.03;0.03;;;12.60;99.90;;;;;;5012198;28;20042;-66
2023/06/03 04:39:08;;;;;;;0.10;0.10;;;12.60;99.90;;;;;;5001076;28;20409;-66
2023/06/03 04:41:37;;;;;;;0.00;0.00;;;12.50;99.90;;;;;;5011261;28;20038;-66
2023/06/03 04:44:03;;;;;;;0.35;0.35;;;12.50;99.90;;;;;;5007544;28;20403;-66
2023/06/03 04:46:31;;;;;;;0.00;0.00;;;12.50;99.90;;;;;;5013337;28;20047;-66
2023/06/03 04:48:59;;;;;;;0.00;0.00;;;12.40;99.90;;;;;;4998651;28;20501;-66
2023/06/03 04:51:27;;;;;;;0.00;0.00;;;12.40;99.90;;;;;;4995485;28;20477;-66
2023/06/03 04:53:57;;;;;;;0.00;0.00;;;12.40;99.90;;;;;;5003023;28;20038;-66
2023/06/03 04:56:29;;;;;;;2.80;0.50;;;12.50;99.90;;;;;;5019680;28;20609;-66
2023/06/03 04:59:00;;;;;;;0.10;0.10;;;12.50;99.90;;;;;;4997796;28;20501;-66
2023/06/03 05:01:27;;;;;;;0.10;0.10;;;12.50;99.90;;;;;;5011111;28;20402;-66
2023/06/03 05:03:53;;;;;;;0.43;0.43;;;12.50;99.90;;;;;;4998323;28;20379;-66
2023/06/03 05:06:19;;;;;;;0.00;0.00;;;12.60;99.90;;;;;;5008520;28;20046;-66
2023/06/03 05:08:49;;;;;;;0.15;0.15;;;12.70;99.90;;;;;;5010817;28;20052;-66
2023/06/03 05:11:16;;;;;;;0.00;0.00;;;12.70;99.90;;;;;;5002722;28;20502;-66
2023/06/03 05:13:42;;;;;;;0.00;0.00;;;12.70;99.90;;;;;;5001280;28;20099;-66
2023/06/03 05:16:08;;;;;;;0.10;0.10;;;12.80;99.90;;;;;;5008319;28;20433;-66
2023/06/03 05:18:35;;;;;;;0.00;0.00;;;12.80;99.90;;;;;;5011920;28;20037;-66
2023/06/03 05:21:02;;;;;;;0.00;0.00;;;12.80;99.90;;;;;;5002557;28;20052;-66
2023/06/03 05:23:28;;;;;;;0.10;0.10;;;12.90;99.90;;;;;;5007111;28;20050;-66
2023/06/03 05:25:53;;;;;;;0.00;0.00;;;12.90;99.90;;;;;;5007853;28;20129;-66
2023/06/03 05:28:19;;;;;;;0.03;0.03;;;12.90;99.90;;;;;;5013821;28;20499;-66
2023/06/03 05:30:44;;;;;;;0.00;0.00;;;13.00;99.90;;;;;;5011346;28;20048;-66
2023/06/03 05:33:29;;;;;;;0.00;0.00;;;13.00;99.90;;;;;;5002515;28;20649;-66
2023/06/03 05:35:55;;;;;;;0.00;0.00;;;13.00;99.90;;;;;;5013691;28;20092;-66
2023/06/03 05:38:22;;;;;;;0.00;0.00;;;13.00;99.90;;;;;;5003246;28;20042;-67
2023/06/03 05:40:50;;;;;;;0.00;0.00;;;13.10;99.90;;;;;;5013362;28;20076;-66
2023/06/03 05:43:16;;;;;;;0.60;0.47;;;13.10;99.90;;;;;;5013679;28;20045;-66
2023/06/03 05:45:43;;;;;;;0.43;0.30;;;13.20;99.90;;;;;;5014473;28;20049;-66
2023/06/03 05:48:09;;;;;;;0.10;0.10;;;13.20;99.90;;;;;;5003593;28;20046;-66
2023/06/03 05:50:37;;;;;;;0.00;0.00;;;13.20;99.90;;;;;;5005936;28;20038;-67
2023/06/03 05:53:03;;;;;;;0.00;0.00;;;13.30;99.90;;;;;;5014280;28;20077;-66
2023/06/03 05:55:29;;;;;;;0.08;0.08;;;13.30;99.90;;;;;;5012105;28;20517;-66
2023/06/03 05:57:56;;;;;;;0.00;0.00;;;13.30;99.90;;;;;;5004772;28;20129;-66
2023/06/03 06:00:21;;;;;;;0.00;0.00;;;13.50;99.90;;;;;;5014293;28;20454;-66
2023/06/03 06:02:47;;;;;;;0.10;0.10;;;13.40;99.90;;;;;;5011775;28;20091;-67
2023/06/03 06:05:13;;;;;;;2.65;0.63;;;13.50;99.90;;;;;;5006300;28;20041;-67
2023/06/03 06:07:39;;;;;;;0.08;0.08;;;13.50;99.90;;;;;;5003202;28;20042;-66
2023/06/03 06:10:05;;;;;;;0.00;0.00;;;13.50;99.90;;;;;;5003097;28;20092;-66
2023/06/03 06:12:31;;;;;;;0.10;0.10;;;13.60;99.90;;;;;;5004483;28;20050;-66
2023/06/03 06:14:56;;;;;;;0.00;0.00;;;13.70;99.90;;;;;;5010428;28;20033;-66
2023/06/03 06:17:22;;;;;;;0.03;0.03;;;13.70;99.90;;;;;;5013195;28;20053;-66
2023/06/03 06:19:47;;;;;;;0.05;0.05;;;13.80;99.90;;;;;;5014027;28;20093;-66
2023/06/03 06:22:13;;;;;;;0.00;0.00;;;13.80;99.90;;;;;;4995831;28;20129;-66
2023/06/03 06:24:39;;;;;;;0.00;0.00;;;13.90;99.90;;;;;;5012899;28;20084;-66
2023/06/03 06:27:05;;;;;;;0.20;0.20;;;14.00;99.90;;;;;;5003751;28;20046;-66
2023/06/03 06:29:32;;;;;;;0.00;0.00;;;14.10;99.90;;;;;;4998092;28;20134;-66
2023/06/03 06:31:59;;;;;;;0.00;0.00;;;14.10;99.90;;;;;;5002319;28;20111;-65
2023/06/03 06:34:29;;;;;;;0.00;0.00;;;14.20;99.90;;;;;;5012306;28;20116;-64
2023/06/03 06:36:55;;;;;;;0.20;0.20;;;14.20;99.90;;;;;;5010489;28;20042;-64
2023/06/03 06:39:33;;;;;;;0.00;0.00;;;14.40;99.90;;;;;;4998501;28;20049;-64
2023/06/03 06:42:07;;;;;;;0.00;0.00;;;14.50;99.90;;;;;;5012991;28;20144;-64
2023/06/03 06:44:42;;;;;;;0.00;0.00;;;14.40;99.90;;;;;;5013133;28;20490;-64
2023/06/03 06:47:10;;;;;;;0.00;0.00;;;14.40;99.90;;;;;;4998312;28;20049;-64
2023/06/03 06:49:36;;;;;;;0.45;0.45;;;14.40;99.90;;;;;;5011350;28;20045;-66
2023/06/03 06:52:02;;;;;;;0.00;0.00;;;14.40;99.90;;;;;;5002383;28;20494;-66
2023/06/03 06:54:28;;;;;;;0.30;0.30;;;14.40;99.90;;;;;;5003140;28;20045;-66
2023/06/03 06:56:53;;;;;;;0.10;0.10;;;14.40;99.90;;;;;;5012868;28;20413;-66
2023/06/03 06:59:19;;;;;;;0.00;0.00;;;14.40;99.90;;;;;;5013315;28;20425;-66
2023/06/03 07:01:45;;;;;;;0.00;0.00;;;14.40;99.90;;;;;;4998290;28;20039;-66
2023/06/03 07:04:11;;;;;;;0.10;0.10;;;14.40;99.90;;;;;;5009650;28;20468;-66
2023/06/03 07:06:36;;;;;;;0.10;0.10;;;14.40;99.90;;;;;;4998834;28;20074;-66
2023/06/03 07:09:02;;;;;;;0.10;0.10;;;14.30;99.90;;;;;;5006449;28;20096;-66
2023/06/03 07:11:32;;;;;;;0.00;0.00;;;14.30;99.90;;;;;;5012761;28;20085;-66
2023/06/03 07:13:58;;;;;;;0.00;0.00;;;14.30;99.90;;;;;;5012258;28;20073;-66
2023/06/03 07:16:24;;;;;;;0.00;0.00;;;14.20;99.90;;;;;;5001935;28;20096;-66
2023/06/03 07:18:53;;;;;;;0.00;0.00;;;14.20;99.90;;;;;;5012556;28;20037;-66
2023/06/03 07:21:23;;;;;;;0.10;0.10;;;14.30;99.90;;;;;;5011730;28;20092;-66
2023/06/03 07:23:49;;;;;;;0.00;0.00;;;14.30;99.90;;;;;;5012802;28;20050;-66
2023/06/03 07:26:15;;;;;;;0.00;0.00;;;14.40;99.90;;;;;;4997098;28;20133;-66
2023/06/03 07:28:40;;;;;;;0.00;0.00;;;14.60;99.90;;;;;;5008304;28;20129;-66
2023/06/03 07:31:10;;;;;;;0.00;0.00;;;14.70;99.90;;;;;;5012414;28;20097;-66
2023/06/03 07:33:45;;;;;;;0.00;0.00;;;14.90;99.90;;;;;;5014553;28;20050;-66
2023/06/03 07:36:12;;;;;;;0.00;0.00;;;15.10;99.90;;;;;;4992594;28;20055;-66
2023/06/03 07:38:38;;;;;;;0.30;0.30;;;15.20;99.90;;;;;;5012547;28;20080;-66
2023/06/03 07:41:04;;;;;;;0.10;0.10;;;15.30;99.90;;;;;;5006160;28;20058;-67
2023/06/03 07:43:30;;;;;;;0.25;0.25;;;15.40;99.90;;;;;;4997945;28;20140;-66
2023/06/03 07:45:56;;;;;;;0.00;0.00;;;15.50;99.90;;;;;;5010394;28;20109;-66
2023/06/03 07:48:24;;;;;;;0.10;0.10;;;15.60;99.90;;;;;;5000435;28;20661;-66
2023/06/03 07:50:49;;;;;;;0.00;0.00;;;15.70;99.90;;;;;;5011644;28;20133;-66
2023/06/03 07:53:25;;;;;;;0.00;0.00;;;15.90;99.90;;;;;;5012340;28;20129;-66
2023/06/03 07:55:51;;;;;;;0.00;0.00;;;16.00;99.90;;;;;;5008214;28;20481;-66
2023/06/03 07:58:17;;;;;;;0.00;0.00;;;16.00;99.90;;;;;;4995079;28;20125;-66
2023/06/03 08:00:52;;;;;;;0.00;0.00;;;16.20;99.90;;;;;;5009683;28;20378;-67
2023/06/03 08:03:19;;;;;;;0.00;0.00;;;16.30;99.90;;;;;;5003637;28;20042;-67
2023/06/03 08:05:47;;;;;;;0.00;0.00;;;16.40;99.90;;;;;;5005362;28;20413;-67
2023/06/03 08:08:16;;;;;;;0.00;0.00;;;16.40;99.90;;;;;;5011863;28;20465;-66
2023/06/03 08:10:45;;;;;;;0.00;0.00;;;16.50;99.90;;;;;;4997443;28;20034;-66
2023/06/03 08:13:12;;;;;;;0.20;0.20;;;16.50;99.90;;;;;;5009738;28;20046;-67
2023/06/03 08:15:39;;;;;;;0.00;0.00;;;16.60;99.90;;;;;;5012152;28;20034;-67
2023/06/03 08:18:05;;;;;;;0.00;0.00;;;16.70;99.90;;;;;;4997494;28;20121;-67
2023/06/03 08:20:33;;;;;;;0.00;0.00;;;16.90;99.90;;;;;;5008577;28;20385;-67
2023/06/03 08:22:59;;;;;;;0.00;0.00;;;16.90;99.90;;;;;;5011570;28;20057;-66
2023/06/03 08:25:25;;;;;;;0.00;0.00;;;17.00;99.90;;;;;;5000284;28;20038;-66
2023/06/03 08:27:52;;;;;;;0.10;0.10;;;17.10;99.90;;;;;;5009429;28;20073;-67
2023/06/03 08:30:20;;;;;;;0.00;0.00;;;17.10;99.90;;;;;;5007169;28;20046;-67
2023/06/03 08:32:46;;;;;;;0.00;0.00;;;17.20;99.90;;;;;;5001324;28;20073;-67
2023/06/03 08:35:15;;;;;;;0.03;0.03;;;17.40;99.90;;;;;;5011196;28;20042;-67
2023/06/03 08:37:42;;;;;;;0.00;0.00;;;17.40;99.90;;;;;;4993229;28;20047;-67
2023/06/03 08:40:09;;;;;;;0.00;0.00;;;17.50;99.90;;;;;;5006662;28;20053;-67
2023/06/03 08:42:41;;;;;;;0.00;0.00;;;17.60;99.90;;;;;;5011589;28;20046;-67
2023/06/03 08:45:14;;;;;;;0.15;0.10;;;17.60;99.90;;;;;;4999365;28;20121;-67
2023/06/03 08:47:48;;;;;;;0.00;0.00;;;17.70;99.90;;;;;;5005051;28;20046;-66
2023/06/03 08:50:20;;;;;;;0.10;0.10;;;17.70;99.90;;;;;;4997546;28;20078;-67
2023/06/03 08:52:47;;;;;;;0.00;0.00;;;17.70;99.90;;;;;;4999492;28;20494;-67
2023/06/03 08:55:16;;;;;;;0.00;0.00;;;17.80;99.90;;;;;;5003021;28;20041;-67
2023/06/03 08:58:08;;;;;;;0.00;0.00;;;17.90;99.90;;;;;;5002990;28;20103;-67
2023/06/03 09:00:34;;;;;;;0.00;0.00;;;17.90;99.90;;;;;;5003571;28;20133;-67
2023/06/03 09:03:01;;;;;;;0.00;0.00;;;18.00;99.90;;;;;;5013613;28;20042;-67
2023/06/03 09:05:27;;;;;;;0.00;0.00;;;18.10;99.90;;;;;;5015245;28;20068;-67
2023/06/03 09:07:53;;;;;;;0.00;0.00;;;18.20;99.90;;;;;;5009862;28;20597;-67
2023/06/03 09:10:25;;;;;;;0.00;0.00;;;18.20;99.90;;;;;;5022222;28;20057;-67
2023/06/03 09:12:56;;;;;;;0.00;0.00;;;18.20;99.90;;;;;;5015028;28;20077;-67
2023/06/03 09:15:22;;;;;;;0.00;0.00;;;18.40;99.90;;;;;;5006250;28;20050;-67
2023/06/03 09:17:48;;;;;;;0.05;0.05;;;18.40;99.90;;;;;;5003320;28;20034;-67
2023/06/03 09:20:14;;;;;;;0.00;0.00;;;18.40;99.60;;;;;;5013782;28;20072;-67
2023/06/03 09:22:47;;;;;;;0.03;0.03;;;18.60;99.20;;;;;;5014504;28;20383;-67
2023/06/03 09:25:13;;;;;;;0.20;0.20;;;18.60;99.20;;;;;;5006512;28;20042;-67
2023/06/03 09:27:40;;;;;;;0.85;0.85;;;18.60;98.90;;;;;;5012196;28;20048;-67
2023/06/03 09:30:06;;;;;;;0.00;0.00;;;18.70;99.00;;;;;;5002445;28;20636;-67
2023/06/03 09:32:36;;;;;;;0.00;0.00;;;18.80;98.20;;;;;;5013000;28;20060;-67
2023/06/03 09:35:05;;;;;;;0.00;0.00;;;18.90;98.50;;;;;;5014033;28;20033;-67
2023/06/03 09:37:34;;;;;;;0.00;0.00;;;19.00;99.20;;;;;;4999949;28;20051;-67
2023/06/03 09:40:01;;;;;;;0.00;0.00;;;19.10;96.80;;;;;;5041015;28;20053;-67
2023/06/03 09:42:44;;;;;;;0.00;0.00;;;19.40;97.50;;;;;;5001798;28;20494;-67
2023/06/03 09:45:23;;;;;;;0.43;0.43;;;19.80;97.40;;;;;;5014308;28;20545;-67
2023/06/03 09:47:49;;;;;;;0.00;0.00;;;20.30;96.90;;;;;;5006897;28;20060;-67
2023/06/03 09:50:15;;;;;;;0.00;0.00;;;20.70;96.40;;;;;;5005238;28;20485;-67
2023/06/03 09:52:41;;;;;;;0.00;0.00;;;21.00;95.60;;;;;;5009357;28;20397;-67
2023/06/03 09:55:08;;;;;;;0.00;0.00;;;21.10;96.10;;;;;;5014406;28;20129;-67
2023/06/03 09:57:36;;;;;;;0.00;0.00;;;21.20;94.60;;;;;;5028729;28;20045;-67
2023/06/03 10:00:07;;;;;;;0.00;0.00;;;21.40;94.40;;;;;;5002114;28;20046;-67
2023/06/03 10:02:35;;;;;;;0.00;0.00;;;21.60;95.40;;;;;;5011744;28;20041;-67
2023/06/03 10:05:01;;;;;;;0.00;0.00;;;21.70;94.20;;;;;;5004635;28;20674;-67
2023/06/03 10:07:27;;;;;;;0.00;0.00;;;21.80;94.50;;;;;;5001482;28;20045;-67
2023/06/03 10:10:04;;;;;;;0.00;0.00;;;21.90;94.20;;;;;;4997212;28;20104;-67
2023/06/03 10:12:32;;;;;;;0.00;0.00;;;21.80;93.10;;;;;;5008515;28;20042;-68
2023/06/03 10:15:00;;;;;;;0.00;0.00;;;22.00;93.60;;;;;;5013594;28;20049;-67
2023/06/03 10:17:26;;;;;;;0.00;0.00;;;21.90;92.90;;;;;;5002087;28;20433;-67
2023/06/03 10:19:52;;;;;;;0.00;0.00;;;22.00;92.40;;;;;;5010159;28;20045;-67
2023/06/03 10:22:19;;;;;;;0.00;0.00;;;22.10;91.70;;;;;;5012077;28;20053;-67
2023/06/03 10:24:47;;;;;;;0.00;0.00;;;22.20;92.60;;;;;;5007423;28;20108;-67
2023/06/03 10:27:15;;;;;;;0.00;0.00;;;22.20;92.10;;;;;;5000287;28;20100;-67
2023/06/03 10:29:41;;;;;;;0.00;0.00;;;22.40;93.80;;;;;;5000393;28;20077;-67
2023/06/03 10:32:09;;;;;;;0.00;0.00;;;22.40;91.00;;;;;;4999279;28;20042;-67
2023/06/03 10:34:39;;;;;;;0.10;0.10;;;22.30;92.20;;;;;;5012799;28;20540;-67
2023/06/03 10:37:06;;;;;;;0.57;0.57;;;22.40;91.50;;;;;;5013371;28;20425;-67
2023/06/03 10:39:32;;;;;;;0.00;0.00;;;22.40;93.10;;;;;;5001985;28;20138;-67
2023/06/03 10:41:59;;;;;;;0.00;0.00;;;22.50;92.00;;;;;;5026647;28;20069;-67
2023/06/03 10:44:25;;;;;;;0.00;0.00;;;22.50;92.70;;;;;;5013180;28;20508;-67
2023/06/03 10:47:02;;;;;;;0.00;0.00;;;22.50;91.10;;;;;;5012409;28;20038;-67
2023/06/03 10:49:33;;;;;;;0.20;0.20;;;22.60;92.20;;;;;;4997901;28;20065;-67
2023/06/03 10:52:20;;;;;;;0.00;0.00;;;22.70;93.30;;;;;;5009251;28;20107;-67
2023/06/03 10:54:48;;;;;;;0.00;0.00;;;22.70;92.40;;;;;;5000905;28;20046;-67
2023/06/03 10:57:18;;;;;;;0.00;0.00;;;22.60;91.60;;;;;;5010488;28;20082;-67
2023/06/03 10:59:45;;;;;;;0.00;0.00;;;22.60;91.00;;;;;;5012457;28;20370;-67
2023/06/03 11:02:12;;;;;;;0.00;0.00;;;22.80;92.10;;;;;;5026116;28;20045;-67
2023/06/03 11:04:39;;;;;;;0.05;0.05;;;23.00;90.50;;;;;;5000859;28;20089;-67
2023/06/03 11:07:35;;;;;;;0.22;0.22;;;22.80;89.90;;;;;;5012190;28;20490;-67
2023/06/03 11:10:00;;;;;;;0.00;0.00;;;22.90;91.00;;;;;;5006200;28;20054;-67
2023/06/03 11:12:47;;;;;;;0.00;0.00;;;23.10;92.60;;;;;;5003887;28;20056;-67
2023/06/03 11:15:13;;;;;;;0.00;0.00;;;22.90;88.60;;;;;;5012601;28;20086;-67
2023/06/03 11:17:38;;;;;;;0.00;0.00;;;23.10;91.10;;;;;;5000427;28;20046;-67
2023/06/03 11:20:04;;;;;;;0.00;0.00;;;23.10;89.80;;;;;;5042280;28;20069;-67
2023/06/03 11:22:30;;;;;;;0.10;0.10;;;23.20;90.70;;;;;;5012700;28;20077;-67
2023/06/03 11:25:02;;;;;;;0.00;0.00;;;23.40;90.60;;;;;;5026738;28;20422;-67
2023/06/03 11:27:29;;;;;;;0.00;0.00;;;23.40;89.50;;;;;;5000299;28;20049;-67
2023/06/03 11:29:59;;;;;;;0.00;0.00;;;23.40;90.30;;;;;;5007672;28;20525;-67
2023/06/03 11:32:30;;;;;;;0.10;0.10;;;23.60;90.40;;;;;;5007854;28;20414;-67
2023/06/03 11:34:58;;;;;;;0.25;0.25;;;23.70;90.40;;;;;;5004942;28;20073;-67
2023/06/03 11:37:52;;;;;;;0.00;0.00;;;23.90;86.30;;;;;;5001784;28;20490;-67
2023/06/03 11:40:19;;;;;;;0.00;0.00;;;24.00;86.70;;;;;;5001034;28;20073;-67
2023/06/03 11:42:47;;;;;;;0.55;0.25;;;23.90;88.90;;;;;;4999705;28;20045;-67
2023/06/03 11:45:24;;;;;;;0.57;0.15;;;24.10;88.20;;;;;;4997950;28;20061;-67
2023/06/03 11:47:57;;;;;;;0.00;0.00;;;24.10;88.20;;;;;;5004328;28;20956;-67
2023/06/03 11:50:43;;;;;;;0.00;0.00;;;24.20;90.10;;;;;;5012301;28;20053;-67
2023/06/03 11:53:09;;;;;;;0.00;0.00;;;24.30;87.20;;;;;;5003536;28;20037;-67
2023/06/03 11:55:35;;;;;;;0.00;0.00;;;24.50;89.50;;;;;;4999819;28;20053;-67
2023/06/03 11:58:11;;;;;;;0.00;0.00;;;24.40;88.20;;;;;;5007803;28;20777;-67
2023/06/03 12:00:37;;;;;;;0.00;0.00;;;24.60;86.00;;;;;;4994859;28;20125;-67
2023/06/03 12:03:03;;;;;;;0.00;0.00;;;24.70;86.30;;;;;;5011141;28;20409;-67
2023/06/03 12:05:29;;;;;;;0.00;0.00;;;24.80;87.90;;;;;;5002041;28;20485;-67
2023/06/03 12:08:01;;;;;;;0.00;0.00;;;25.00;88.10;;;;;;5011778;28;20042;-67
2023/06/03 12:10:27;;;;;;;0.00;0.00;;;25.10;86.90;;;;;;5011419;28;20050;-67
2023/06/03 12:12:54;;;;;;;0.00;0.00;;;25.10;88.10;;;;;;5016435;28;20137;-67
2023/06/03 12:15:21;;;;;;;0.00;0.00;;;25.20;87.60;;;;;;5008064;28;20041;-67
2023/06/03 12:17:47;;;;;;;0.00;0.00;;;25.20;86.60;;;;;;5009860;28;20076;-67
2023/06/03 12:20:26;;;;;;;0.90;0.30;;;25.60;88.10;;;;;;5011975;28;20046;-67
2023/06/03 12:23:03;;;;;;;0.00;0.00;;;25.50;88.10;;;;;;4999565;28;20791;-67
2023/06/03 12:25:29;;;;;;;0.00;0.00;;;25.30;84.40;;;;;;5004468;28;20120;-67
2023/06/03 12:27:56;;;;;;;0.00;0.00;;;25.40;86.70;;;;;;5010250;28;20054;-67
2023/06/03 12:30:31;;;;;;;0.10;0.10;;;25.60;85.40;;;;;;5009062;28;20046;-67
2023/06/03 12:32:58;;;;;;;0.00;0.00;;;25.80;87.90;;;;;;5001101;28;20542;-67
2023/06/03 12:35:25;;;;;;;0.00;0.00;;;25.50;85.60;;;;;;5014571;28;20041;-67
2023/06/03 12:38:04;;;;;;;0.00;0.00;;;25.70;86.10;;;;;;5006546;28;20081;-67
2023/06/03 12:40:29;;;;;;;0.00;0.00;;;25.60;85.30;;;;;;5044993;28;20046;-67
2023/06/03 12:42:56;;;;;;;0.00;0.00;;;25.80;84.00;;;;;;5015393;28;20038;-67
2023/06/03 12:45:26;;;;;;;0.00;0.00;;;26.10;86.20;;;;;;5014847;28;20124;-67
2023/06/03 12:47:52;;;;;;;0.00;0.00;;;25.90;85.20;;;;;;4998132;28;20493;-67
2023/06/03 12:50:18;;;;;;;0.00;0.00;;;25.50;83.40;;;;;;5010830;28;20539;-67
2023/06/03 12:52:44;;;;;;;0.00;0.00;;;25.90;84.00;;;;;;5014816;28;20042;-67